Eagle Point, Oregon
Current Conditions -  °F | °C
As of 1:53 AM on Wednesday 22 Oct 2014 (Local Time) from KMFR Reporting Station
Clear Clear  
Wind Chill: 53°   Ceiling: Unl
Heat Index: 53°   Visibility: 10mi
Dew Point: 48°   Wind: 3mph
Humidity: 83%   Direction: 90°E
Pressure: 29.98"   Gusts: NA
Location:  42.47°N, 122.8°W
Report Text: KMFR 220853Z AUTO 09003KT 10SM CLR 12/09 A2998 RMK AO2 SLP148 T01170089 55004
Loading
Personal Weather Stations






























Interactive Weather Map
Tropical Storm Tracking
New forecast layout! Learn more

10-Day Weather Forecast

Advertisements
Track Severe Weather on mobile